Time;durP1;ratioP1;P1;durP2;ratioP2;P2;SDS_P1;SDS_P2;PMS_P1;PMS_P2;Temp;Humidity;BMP_temperature;BMP_pressure;BME280_temperature;BME280_humidity;BME280_pressure;Samples;Min_cycle;Max_cycle;Signal;HPM_P1;HPM_P2
2021/01/03 00:01:46;;;;;;;19.50;11.23;;;;;;;-0.13;100.00;101075.59;5008743;28;20038;-71
2021/01/03 00:04:12;;;;;;;19.40;10.93;;;;;;;-0.16;100.00;101065.16;4992768;28;20065;-71
2021/01/03 00:06:38;;;;;;;20.13;9.93;;;;;;;-0.15;100.00;101069.50;5027826;28;20047;-72
2021/01/03 00:09:05;;;;;;;17.30;10.63;;;;;;;-0.14;100.00;101071.25;5026608;28;20053;-71
2021/01/03 00:11:32;;;;;;;16.40;9.27;;;;;;;-0.15;100.00;101070.38;5007825;28;20087;-71
2021/01/03 00:13:58;;;;;;;18.63;10.40;;;;;;;-0.15;100.00;101066.91;5009042;28;20045;-71
2021/01/03 00:16:25;;;;;;;21.13;11.03;;;;;;;-0.15;100.00;101069.50;4994193;28;20065;-70
2021/01/03 00:18:51;;;;;;;19.97;10.20;;;;;;;-0.17;100.00;101065.94;5025863;28;20056;-70
2021/01/03 00:21:18;;;;;;;17.20;9.67;;;;;;;-0.16;100.00;101065.16;5009627;28;20061;-73
2021/01/03 00:23:44;;;;;;;15.97;8.87;;;;;;;-0.17;100.00;101073.75;5009352;28;20037;-71
2021/01/03 00:26:11;;;;;;;19.10;10.77;;;;;;;-0.18;100.00;101062.47;5009082;28;20044;-71
2021/01/03 00:28:37;;;;;;;24.90;12.27;;;;;;;-0.17;100.00;101060.75;5008395;28;20061;-71
2021/01/03 00:31:03;;;;;;;15.97;9.67;;;;;;;-0.18;100.00;101056.41;4994964;28;20037;-70
2021/01/03 00:33:29;;;;;;;20.30;10.87;;;;;;;-0.17;100.00;101060.75;5009891;28;20214;-70
2021/01/03 00:35:56;;;;;;;20.60;10.80;;;;;;;-0.18;100.00;101066.78;4992965;28;20609;-70
2021/01/03 00:38:23;;;;;;;22.43;11.53;;;;;;;-0.19;100.00;101068.50;5007554;28;20037;-71
2021/01/03 00:40:52;;;;;;;20.23;11.53;;;;;;;-0.18;100.00;101072.84;5009175;28;20140;-71
2021/01/03 00:43:18;;;;;;;22.13;11.50;;;;;;;-0.21;100.00;101070.19;5007614;28;20079;-72
2021/01/03 00:45:44;;;;;;;24.93;12.63;;;;;;;-0.23;100.00;101077.06;5008900;28;20069;-72
2021/01/03 00:48:11;;;;;;;26.13;13.27;;;;;;;-0.23;100.00;101076.19;5025256;28;20040;-73
2021/01/03 00:50:37;;;;;;;23.20;11.93;;;;;;;-0.25;100.00;101077.81;5007305;28;20092;-73
2021/01/03 00:53:04;;;;;;;28.77;14.40;;;;;;;-0.28;100.00;101082.09;5023498;28;20041;-71
2021/01/03 00:55:30;;;;;;;24.13;13.67;;;;;;;-0.24;100.00;101088.28;5007315;28;20034;-71
2021/01/03 00:57:56;;;;;;;28.43;14.13;;;;;;;-0.29;100.00;101092.44;5005389;28;20049;-73
2021/01/03 01:00:40;;;;;;;30.03;16.27;;;;;;;-0.30;100.00;101088.97;4992578;28;20045;-73
2021/01/03 01:03:07;;;;;;;;;;;;;;;-0.29;100.00;101088.13;5025737;28;21727;-71
2021/01/03 01:05:33;;;;;;;29.07;13.53;;;;;;;-0.29;100.00;101097.63;5025079;28;19920;-72
2021/01/03 01:07:59;;;;;;;26.73;13.57;;;;;;;-0.30;100.00;101093.28;5005200;28;20115;-71
2021/01/03 01:10:27;;;;;;;31.97;14.20;;;;;;;-0.32;100.00;101094.97;5024478;28;20055;-71
2021/01/03 01:12:56;;;;;;;31.40;15.47;;;;;;;-0.33;100.00;101093.19;5002722;28;20038;-71
2021/01/03 01:15:25;;;;;;;26.13;13.77;;;;;;;-0.35;100.00;101089.66;5019900;28;20037;-70
2021/01/03 01:17:56;;;;;;;30.50;15.80;;;;;;;-0.38;100.00;101079.19;5015510;28;20065;-73
2021/01/03 01:20:24;;;;;;;32.67;16.80;;;;;;;-0.38;100.00;101086.97;5007743;28;20535;-72
2021/01/03 01:22:51;;;;;;;32.57;15.33;;;;;;;-0.39;100.00;101083.50;4992336;28;20045;-73
2021/01/03 01:25:21;;;;;;;31.83;14.40;;;;;;;-0.40;100.00;101081.75;5026503;28;20038;-71
2021/01/03 01:27:47;;;;;;;32.03;16.20;;;;;;;-0.41;100.00;101072.19;5026865;28;20041;-71
2021/01/03 01:30:14;;;;;;;36.53;18.13;;;;;;;-0.42;100.00;101059.16;5026909;28;20037;-71
2021/01/03 01:32:40;;;;;;;34.67;16.73;;;;;;;-0.48;100.00;101057.25;4991517;28;20225;-70
2021/01/03 01:35:13;;;;;;;30.13;16.73;;;;;;;-0.53;100.00;101048.44;5009107;28;20205;-70
2021/01/03 01:37:39;;;;;;;29.63;14.63;;;;;;;-0.62;100.00;101045.56;4972869;28;20504;-73
2021/01/03 01:40:07;;;;;;;33.37;15.57;;;;;;;-0.75;100.00;101041.75;5020777;28;20052;-73
2021/01/03 01:42:33;;;;;;;36.10;17.80;;;;;;;-0.86;100.00;101036.19;4989243;28;20077;-70
2021/01/03 01:45:00;;;;;;;40.20;18.83;;;;;;;-0.97;100.00;101029.78;5023656;28;20458;-70
2021/01/03 01:47:29;;;;;;;28.43;15.63;;;;;;;-1.11;100.00;101033.63;5008254;28;20129;-70
2021/01/03 01:49:57;;;;;;;29.73;16.13;;;;;;;-1.22;100.00;101032.41;4992515;28;20110;-70
2021/01/03 01:52:28;;;;;;;31.77;15.50;;;;;;;-1.29;100.00;101031.31;5008920;28;20099;-73
2021/01/03 01:54:58;;;;;;;32.90;16.73;;;;;;;-1.35;100.00;101027.63;5007448;28;20511;-71
2021/01/03 01:57:32;;;;;;;33.67;17.33;;;;;;;-1.45;100.00;101036.81;5009032;28;20046;-71
2021/01/03 02:00:16;;;;;;;31.07;16.27;;;;;;;-1.58;100.00;101038.13;4990461;28;20073;-69
2021/01/03 02:02:48;;;;;;;31.83;15.45;;;;;;;-1.67;100.00;101037.81;5006686;28;20127;-69
2021/01/03 02:05:24;;;;;;;30.00;14.97;;;;;;;-1.74;100.00;101033.25;4989914;28;20099;-71
2021/01/03 02:08:18;;;;;;;30.77;14.33;;;;;;;-1.80;100.00;101030.44;4971810;28;20116;-71
2021/01/03 02:10:46;;;;;;;34.33;17.00;;;;;;;-1.82;100.00;101026.91;5006874;28;20483;-71
2021/01/03 02:13:46;;;;;;;31.47;16.23;;;;;;;-1.89;100.00;101025.81;5026917;28;20550;-71
2021/01/03 02:16:15;;;;;;;29.67;15.03;;;;;;;-1.94;100.00;101027.34;4978008;28;20052;-71
2021/01/03 02:18:45;;;;;;;38.47;18.10;;;;;;;-1.94;100.00;101027.34;5026186;28;20046;-71
2021/01/03 02:21:21;;;;;;;31.57;15.53;;;;;;;-2.00;100.00;101028.03;5006018;28;20123;-71
2021/01/03 02:24:00;;;;;;;32.43;16.50;;;;;;;-2.01;100.00;101030.56;5008501;28;20037;-71
2021/01/03 02:26:28;;;;;;;44.90;20.13;;;;;;;-1.90;100.00;101033.53;5012003;28;20086;-71
2021/01/03 02:28:56;;;;;;;45.13;20.20;;;;;;;-1.86;100.00;101036.25;4991635;28;20041;-71
2021/01/03 02:31:27;;;;;;;42.93;20.23;;;;;;;-1.85;100.00;101027.69;5008993;28;20046;-71
2021/01/03 02:33:54;;;;;;;43.80;19.93;;;;;;;-1.85;100.00;101025.09;5009226;28;20045;-71
2021/01/03 02:36:48;;;;;;;38.73;18.57;;;;;;;-1.86;100.00;101019.84;4995631;28;20570;-71
2021/01/03 02:39:24;;;;;;;38.20;17.70;;;;;;;-1.93;100.00;101013.59;5011513;28;20428;-71
2021/01/03 02:41:58;;;;;;;37.47;17.57;;;;;;;-1.95;100.00;101007.47;5015107;28;20041;-71
2021/01/03 02:44:24;;;;;;;36.60;17.43;;;;;;;-1.96;100.00;101007.41;5029412;28;20041;-71
2021/01/03 02:46:55;;;;;;;35.47;16.00;;;;;;;-2.00;100.00;101011.59;5010861;28;20049;-71
2021/01/03 02:49:22;;;;;;;34.43;16.17;;;;;;;-2.06;100.00;101011.38;5010958;28;20037;-72
2021/01/03 02:51:49;;;;;;;35.10;17.97;;;;;;;-2.04;100.00;101017.50;5007393;28;20033;-71
2021/01/03 02:54:15;;;;;;;33.70;17.23;;;;;;;-2.02;100.00;101014.16;5012195;28;20041;-71
2021/01/03 02:56:41;;;;;;;37.87;17.97;;;;;;;-1.96;100.00;101012.59;5027885;28;20219;-71
2021/01/03 02:59:07;;;;;;;46.23;20.70;;;;;;;-1.88;100.00;101021.50;5032906;28;20042;-72
2021/01/03 03:01:33;;;;;;;44.77;20.37;;;;;;;-1.81;100.00;101018.31;5028812;28;20072;-71
2021/01/03 03:03:59;;;;;;;48.87;21.37;;;;;;;-1.74;100.00;101008.22;5011232;28;20459;-72
2021/01/03 03:06:44;;;;;;;41.17;18.23;;;;;;;-1.71;100.00;101007.44;5010242;28;20530;-71
2021/01/03 03:09:10;;;;;;;45.15;20.65;;;;;;;-1.64;100.00;101008.53;5021119;28;20087;-71
2021/01/03 03:11:36;;;;;;;37.77;17.63;;;;;;;-1.66;100.00;101002.44;5010337;28;20125;-72
2021/01/03 03:14:03;;;;;;;43.37;20.73;;;;;;;-1.60;100.00;101013.84;5029036;28;20106;-72
2021/01/03 03:16:29;;;;;;;40.70;18.60;;;;;;;-1.60;100.00;101016.44;5027532;28;20037;-71
2021/01/03 03:18:55;;;;;;;47.50;22.00;;;;;;;-1.56;100.00;101020.91;5010143;28;20049;-71
2021/01/03 03:21:22;;;;;;;45.37;19.87;;;;;;;-1.55;100.00;101025.28;5026764;28;20565;-71
2021/01/03 03:23:48;;;;;;;48.30;20.60;;;;;;;-1.50;100.00;101034.09;5011226;28;20049;-71
2021/01/03 03:26:15;;;;;;;46.30;20.03;;;;;;;-1.47;100.00;101036.78;5028548;28;20037;-71
2021/01/03 03:28:41;;;;;;;45.67;18.60;;;;;;;-1.41;100.00;101036.13;5010081;28;20114;-71
2021/01/03 03:31:07;;;;;;;37.83;18.70;;;;;;;-1.43;100.00;101033.47;5028302;28;20049;-71
2021/01/03 03:33:34;;;;;;;40.57;20.70;;;;;;;-1.40;100.00;101039.59;5010797;28;20049;-72
2021/01/03 03:36:00;;;;;;;40.03;19.13;;;;;;;-1.41;100.00;101043.88;5028087;28;20045;-71
2021/01/03 03:38:26;;;;;;;38.80;16.70;;;;;;;-1.39;100.00;101028.38;5009353;28;20083;-71
2021/01/03 03:40:52;;;;;;;36.67;16.30;;;;;;;-1.38;100.00;101031.03;4994341;28;20466;-71
2021/01/03 03:43:18;;;;;;;39.53;17.90;;;;;;;-1.37;100.00;101027.59;5028373;28;20068;-71
2021/01/03 03:45:44;;;;;;;37.93;18.37;;;;;;;-1.36;100.00;101025.88;5004008;28;20033;-72
2021/01/03 03:48:10;;;;;;;36.27;17.67;;;;;;;-1.30;100.00;101031.28;5028345;28;20116;-71
2021/01/03 03:50:36;;;;;;;35.73;17.73;;;;;;;-1.30;100.00;101036.47;5026287;28;20041;-72
2021/01/03 03:53:03;;;;;;;35.00;15.67;;;;;;;-1.30;100.00;101020.91;5008543;28;20080;-71
2021/01/03 03:55:29;;;;;;;29.80;14.77;;;;;;;-1.34;100.00;101019.06;5027427;28;20119;-71
2021/01/03 03:57:55;;;;;;;37.57;16.17;;;;;;;-1.35;100.00;101023.34;5027003;28;20069;-72
2021/01/03 04:00:23;;;;;;;40.33;17.07;;;;;;;-1.34;100.00;101022.53;5009990;28;20560;-72
2021/01/03 04:02:50;;;;;;;40.87;18.30;;;;;;;-1.34;100.00;101019.06;5002433;28;20033;-72
2021/01/03 04:05:22;;;;;;;34.13;15.90;;;;;;;-1.37;100.00;101017.22;4992647;28;20042;-71
2021/01/03 04:07:49;;;;;;;39.30;18.57;;;;;;;-1.36;100.00;101018.13;5008048;28;20052;-71
2021/01/03 04:10:16;;;;;;;39.77;17.67;;;;;;;-1.37;100.00;101012.03;5010346;28;20076;-71
2021/01/03 04:12:42;;;;;;;40.30;16.90;;;;;;;-1.42;100.00;101006.72;4992600;28;20065;-72
2021/01/03 04:15:10;;;;;;;38.50;17.03;;;;;;;-1.46;100.00;101014.34;5027564;28;20434;-72
2021/01/03 04:17:37;;;;;;;36.30;16.93;;;;;;;-1.45;100.00;101016.09;5008766;28;20092;-71
2021/01/03 04:20:06;;;;;;;36.57;17.33;;;;;;;-1.48;100.00;101023.78;5009847;28;20049;-72
2021/01/03 04:22:32;;;;;;;42.53;20.10;;;;;;;-1.43;100.00;101025.69;4993777;28;20094;-72
2021/01/03 04:24:58;;;;;;;40.53;17.10;;;;;;;-1.46;100.00;101015.22;5008841;28;20037;-71
2021/01/03 04:27:26;;;;;;;38.80;19.17;;;;;;;-1.44;100.00;101020.44;5010158;28;20041;-72
2021/01/03 04:29:52;;;;;;;51.90;19.87;;;;;;;-1.43;100.00;101027.38;4992328;28;20068;-71
2021/01/03 04:32:19;;;;;;;35.50;17.17;;;;;;;-1.44;100.00;101023.03;5009943;28;20060;-71
2021/01/03 04:34:45;;;;;;;39.93;18.20;;;;;;;-1.46;100.00;101019.53;5009869;28;20461;-72
2021/01/03 04:37:16;;;;;;;41.57;19.70;;;;;;;-1.46;100.00;101025.56;5008227;28;20156;-71
2021/01/03 04:39:43;;;;;;;39.63;19.07;;;;;;;-1.45;100.00;101023.88;4992608;28;20045;-71
2021/01/03 04:42:14;;;;;;;38.33;17.10;;;;;;;-1.47;100.00;101017.75;5007052;28;20048;-71
2021/01/03 04:44:44;;;;;;;42.10;17.53;;;;;;;-1.48;100.00;101005.63;4995263;28;20132;-71
2021/01/03 04:47:30;;;;;;;44.93;21.13;;;;;;;-1.48;100.00;101022.06;5003710;28;20033;-72
2021/01/03 04:50:10;;;;;;;54.40;21.83;;;;;;;-1.37;100.00;101025.00;5003731;28;20041;-72
2021/01/03 04:52:56;;;;;;;50.27;21.83;;;;;;;-1.39;100.00;101015.44;4992291;28;20037;-71
2021/01/03 04:55:27;;;;;;;51.07;22.17;;;;;;;-1.36;100.00;101013.81;4991284;28;20041;-71
2021/01/03 04:58:12;;;;;;;51.07;20.47;;;;;;;-1.34;100.00;101000.94;5009324;28;20063;-71
2021/01/03 05:01:25;;;;;;;44.23;19.67;;;;;;;-1.34;100.00;101000.94;5023750;28;20095;-71
2021/01/03 05:04:01;;;;;;;44.90;20.57;;;;;;;-1.29;100.00;101010.59;4996016;28;20049;-71
2021/01/03 05:06:28;;;;;;;43.10;19.80;;;;;;;-1.28;100.00;101001.09;4991677;28;20124;-71
2021/01/03 05:09:07;;;;;;;51.50;21.17;;;;;;;-1.27;100.00;101000.28;4987467;28;20091;-71
2021/01/03 05:11:41;;;;;;;51.50;20.70;;;;;;;-1.28;100.00;100999.38;5009394;28;20566;-71
2021/01/03 05:14:26;;;;;;;40.23;18.57;;;;;;;-1.33;100.00;100993.19;5006530;28;20081;-72
2021/01/03 05:16:57;;;;;;;45.20;20.23;;;;;;;-1.31;100.00;100991.53;5008029;28;20041;-71
2021/01/03 05:19:23;;;;;;;45.97;21.27;;;;;;;-1.35;100.00;100993.94;5006974;28;20053;-71
2021/01/03 05:21:54;;;;;;;44.43;18.67;;;;;;;-1.36;100.00;100987.00;5008519;28;20395;-71
2021/01/03 05:24:25;;;;;;;42.23;20.77;;;;;;;-1.33;100.00;100988.00;5008660;28;20215;-71
2021/01/03 05:26:52;;;;;;;46.03;21.37;;;;;;;-1.32;100.00;100981.13;5005114;28;21368;-71
2021/01/03 05:29:28;;;;;;;44.77;19.40;;;;;;;-1.32;100.00;100982.00;5007572;28;20124;-72
2021/01/03 05:32:05;;;;;;;39.10;17.00;;;;;;;-1.33;100.00;100969.88;5008221;28;20140;-71
2021/01/03 05:34:39;;;;;;;41.60;18.43;;;;;;;-1.33;100.00;100961.22;5007116;28;20774;-71
2021/01/03 05:37:10;;;;;;;40.17;17.60;;;;;;;-1.32;100.00;100969.03;5025080;28;20503;-71
2021/01/03 05:39:37;;;;;;;41.67;18.13;;;;;;;-1.30;100.00;100972.53;5023708;28;20042;-71
2021/01/03 05:42:14;;;;;;;39.90;18.07;;;;;;;-1.29;100.00;100973.44;5007073;28;20044;-71
2021/01/03 05:44:54;;;;;;;38.57;16.13;;;;;;;-1.28;100.00;100977.78;5005946;28;20045;-72
2021/01/03 05:47:38;;;;;;;33.37;15.53;;;;;;;-1.27;100.00;100983.00;5007750;28;20072;-72
2021/01/03 05:50:28;;;;;;;41.85;17.88;;;;;;;-1.26;100.00;100989.97;5005462;28;20037;-71
2021/01/03 05:53:12;;;;;;;38.33;17.67;;;;;;;-1.24;100.00;100990.91;5002325;28;20038;-71
2021/01/03 05:55:50;;;;;;;36.38;17.13;;;;;;;-1.21;100.00;100990.97;5020487;28;20041;-71
2021/01/03 05:58:20;;;;;;;37.63;17.20;;;;;;;-1.17;100.00;100994.56;5005475;28;20174;-71
2021/01/03 06:00:47;;;;;;;35.07;16.10;;;;;;;-1.18;100.00;100993.69;5026216;28;20045;-72
2021/01/03 06:03:21;;;;;;;31.87;14.50;;;;;;;-1.15;100.00;100995.50;5010317;28;20045;-72
2021/01/03 06:05:55;;;;;;;32.65;15.30;;;;;;;-1.16;100.00;100986.84;5026508;28;20046;-71
2021/01/03 06:08:26;;;;;;;34.67;15.67;;;;;;;-1.14;100.00;100990.34;4997850;28;20053;-71
2021/01/03 06:10:53;;;;;;;35.17;15.43;;;;;;;-1.12;100.00;100995.59;5011462;28;20049;-71
2021/01/03 06:13:24;;;;;;;31.53;15.50;;;;;;;-1.05;100.00;100996.66;5010052;28;20547;-71
2021/01/03 06:15:58;;;;;;;38.70;16.37;;;;;;;-1.01;100.00;100996.81;4993484;28;20129;-72
2021/01/03 06:18:40;;;;;;;35.47;14.60;;;;;;;-1.00;100.00;100993.41;5006370;28;20037;-71
2021/01/03 06:21:29;;;;;;;30.53;14.27;;;;;;;-0.97;100.00;100985.69;4993364;28;20281;-71
2021/01/03 06:24:18;;;;;;;30.37;14.10;;;;;;;-0.93;100.00;100989.25;4989120;28;20049;-71
2021/01/03 06:27:06;;;;;;;34.37;13.83;;;;;;;-0.95;100.00;100980.56;5002859;28;20072;-71
2021/01/03 06:29:36;;;;;;;27.43;12.37;;;;;;;-0.96;100.00;100986.59;5009976;28;20602;-71
2021/01/03 06:32:24;;;;;;;29.43;13.53;;;;;;;-0.93;100.00;100981.47;4991150;28;20034;-71
2021/01/03 06:34:50;;;;;;;26.60;12.57;;;;;;;-0.96;100.00;100984.88;5026683;28;20514;-71
2021/01/03 06:37:49;;;;;;;27.83;11.93;;;;;;;-0.95;100.00;100985.75;5026543;28;20038;-71
2021/01/03 06:40:24;;;;;;;26.03;12.93;;;;;;;-0.93;100.00;100984.06;4978316;28;20076;-71
2021/01/03 06:43:21;;;;;;;25.40;13.17;;;;;;;-0.91;100.00;100983.31;4992287;28;20124;-72
2021/01/03 06:46:00;;;;;;;28.57;13.73;;;;;;;-0.83;100.00;100978.34;5009516;28;20143;-72
2021/01/03 06:49:05;;;;;;;25.83;13.70;;;;;;;-0.81;100.00;100981.00;5008209;28;20069;-72
2021/01/03 06:51:53;;;;;;;22.57;11.10;;;;;;;-0.78;100.00;100987.13;5009162;28;20040;-71
2021/01/03 06:54:48;;;;;;;24.50;10.57;;;;;;;-0.78;100.00;100974.16;4992654;28;20494;-72
2021/01/03 06:57:32;;;;;;;27.77;12.38;;;;;;;-0.78;100.00;100984.53;5010625;28;20581;-71
2021/01/03 07:00:18;;;;;;;27.37;13.27;;;;;;;-0.75;100.00;100974.28;5025286;28;20071;-72
2021/01/03 07:03:08;;;;;;;24.93;12.33;;;;;;;-0.70;100.00;100980.47;5026486;28;20041;-71
2021/01/03 07:05:35;;;;;;;28.93;13.27;;;;;;;-0.64;100.00;100983.25;4992573;28;20125;-72
2021/01/03 07:08:09;;;;;;;28.53;12.20;;;;;;;-0.63;100.00;100972.03;5008324;28;20053;-71
2021/01/03 07:10:37;;;;;;;26.88;11.63;;;;;;;-0.62;100.00;100971.19;5010502;28;20129;-71
2021/01/03 07:13:04;;;;;;;23.90;11.63;;;;;;;-0.59;100.00;100968.72;5008676;28;20041;-72
2021/01/03 07:15:30;;;;;;;23.40;10.40;;;;;;;-0.59;100.00;100962.63;5010808;28;20095;-71
2021/01/03 07:17:56;;;;;;;21.50;11.17;;;;;;;-0.59;100.00;100966.13;5025613;28;20045;-71
2021/01/03 07:20:30;;;;;;;23.37;10.07;;;;;;;-0.59;100.00;100966.13;5010084;28;20505;-72
2021/01/03 07:23:04;;;;;;;24.93;13.00;;;;;;;-0.54;100.00;100965.38;5007423;28;20088;-72
2021/01/03 07:25:45;;;;;;;27.83;11.55;;;;;;;-0.48;100.00;100965.53;5008694;28;20470;-71
2021/01/03 07:28:29;;;;;;;22.50;11.53;;;;;;;-0.45;100.00;100976.00;5007531;28;20045;-71
2021/01/03 07:31:10;;;;;;;26.02;9.88;;;;;;;-0.45;100.00;100965.63;5026998;28;20049;-71
2021/01/03 07:33:41;;;;;;;19.57;9.43;;;;;;;-0.45;100.00;100970.81;5026486;28;20092;-71
2021/01/03 07:36:17;;;;;;;24.70;11.60;;;;;;;-0.40;100.00;100969.25;5009679;28;20594;-71
2021/01/03 07:39:04;;;;;;;26.87;11.27;;;;;;;-0.37;100.00;100967.59;5023173;28;20065;-71
2021/01/03 07:41:30;;;;;;;22.90;10.87;;;;;;;-0.38;100.00;100964.97;5006420;28;20525;-71
2021/01/03 07:44:00;;;;;;;20.83;10.43;;;;;;;-0.36;100.00;100960.69;5026217;28;20052;-71
2021/01/03 07:46:44;;;;;;;21.00;10.60;;;;;;;-0.30;100.00;100966.94;5005044;28;20049;-72
2021/01/03 07:49:33;;;;;;;20.30;9.82;;;;;;;-0.31;100.00;100957.41;5023229;28;20045;-71
2021/01/03 07:52:31;;;;;;;22.63;10.30;;;;;;;-0.27;100.00;100958.34;5006257;28;20037;-72
2021/01/03 07:54:57;;;;;;;22.97;10.80;;;;;;;-0.26;100.00;100964.44;5024980;28;20046;-71
2021/01/03 07:57:27;;;;;;;21.50;10.13;;;;;;;-0.25;100.00;100961.00;5007595;28;20490;-71
2021/01/03 07:59:54;;;;;;;23.23;9.73;;;;;;;-0.23;100.00;100964.53;5025495;28;20135;-72
2021/01/03 08:02:28;;;;;;;20.73;10.57;;;;;;;-0.18;100.00;100979.38;5006141;28;20048;-72
2021/01/03 08:04:55;;;;;;;23.40;10.57;;;;;;;-0.14;100.00;100975.16;5026559;28;20041;-71
2021/01/03 08:07:22;;;;;;;19.17;9.43;;;;;;;-0.11;100.00;100972.66;5010070;28;20092;-71
2021/01/03 08:09:49;;;;;;;19.67;10.17;;;;;;;-0.13;100.00;100966.53;5007664;28;20046;-72
2021/01/03 08:12:21;;;;;;;20.37;8.93;;;;;;;-0.12;100.00;100976.09;5009425;28;20037;-71
2021/01/03 08:14:48;;;;;;;25.57;10.57;;;;;;;-0.09;100.00;100969.25;5026106;28;20053;-73
2021/01/03 08:17:23;;;;;;;23.60;11.23;;;;;;;-0.10;100.00;100979.59;4991564;28;20064;-71
2021/01/03 08:19:50;;;;;;;26.53;12.00;;;;;;;-0.07;100.00;100975.38;5007063;28;20037;-71
2021/01/03 08:22:27;;;;;;;24.07;12.03;;;;;;;-0.06;100.00;100984.06;5023670;28;20135;-71
2021/01/03 08:24:55;;;;;;;24.97;12.00;;;;;;;-0.05;100.00;100965.91;4992008;28;20406;-72
2021/01/03 08:27:28;;;;;;;31.00;14.70;;;;;;;-0.04;100.00;100984.97;5024968;28;20053;-72
2021/01/03 08:29:59;;;;;;;34.40;15.27;;;;;;;-0.07;100.00;100987.50;5007678;28;20064;-71
2021/01/03 08:32:27;;;;;;;28.50;13.67;;;;;;;-0.04;100.00;100984.97;5005814;28;20041;-71
2021/01/03 08:34:59;;;;;;;28.70;15.03;;;;;;;-0.05;100.00;100983.22;5008895;28;20087;-72
2021/01/03 08:37:37;;;;;;;33.63;15.53;;;;;;;-0.05;100.00;100985.81;5007243;28;20041;-70
2021/01/03 08:40:14;;;;;;;32.13;16.67;;;;;;;-0.08;100.00;100989.22;5024727;28;20037;-71
2021/01/03 08:42:42;;;;;;;32.63;15.10;;;;;;;-0.09;100.00;100990.03;4991638;28;20117;-71
2021/01/03 08:45:17;;;;;;;31.83;15.03;;;;;;;-0.03;100.00;100989.31;5025431;28;20091;-71
2021/01/03 08:47:44;;;;;;;37.33;16.30;;;;;;;-0.11;100.00;100980.44;5008307;28;20065;-72
2021/01/03 08:50:22;;;;;;;30.00;15.40;;;;;;;-0.12;100.00;100978.69;5015720;28;20083;-72
2021/01/03 08:53:04;;;;;;;36.37;17.13;;;;;;;-0.15;100.00;100979.50;5024601;28;20116;-72
2021/01/03 08:55:34;;;;;;;34.00;15.57;;;;;;;-0.18;100.00;100984.56;5022228;28;20515;-72
2021/01/03 08:58:04;;;;;;;32.73;14.70;;;;;;;-0.22;100.00;100987.06;5007746;28;20041;-71
2021/01/03 09:00:35;;;;;;;33.17;16.00;;;;;;;-0.28;100.00;100988.63;4991459;28;20502;-71
2021/01/03 09:03:03;;;;;;;35.93;15.57;;;;;;;-0.31;100.00;100983.38;5008947;28;20056;-72
2021/01/03 09:05:33;;;;;;;36.97;16.17;;;;;;;-0.34;100.00;100985.88;5007350;28;20172;-72
2021/01/03 09:08:00;;;;;;;35.90;16.03;;;;;;;-0.40;100.00;100979.63;5006944;28;20036;-72
2021/01/03 09:10:35;;;;;;;36.97;15.77;;;;;;;-0.42;100.00;100991.66;5008404;28;20127;-71
2021/01/03 09:13:08;;;;;;;32.07;15.00;;;;;;;-0.40;100.00;100987.41;4993968;28;20701;-72
2021/01/03 09:15:38;;;;;;;29.03;14.67;;;;;;;-0.42;100.00;100983.88;5009651;28;20063;-72
2021/01/03 09:18:23;;;;;;;32.77;16.20;;;;;;;-0.43;100.00;100992.50;5004004;28;20057;-72
2021/01/03 09:20:55;;;;;;;33.17;14.27;;;;;;;-0.44;100.00;100990.75;5022761;28;20045;-72
2021/01/03 09:23:22;;;;;;;28.00;14.97;;;;;;;-0.46;100.00;100988.09;5019882;28;20152;-72
2021/01/03 09:25:54;;;;;;;29.30;13.57;;;;;;;-0.43;100.00;100988.19;5008711;28;20060;-71
2021/01/03 09:28:30;;;;;;;32.37;16.53;;;;;;;-0.42;100.00;100994.25;5020748;28;20156;-72
2021/01/03 09:31:23;;;;;;;28.30;13.30;;;;;;;-0.47;100.00;100988.06;5008913;28;20446;-72
2021/01/03 09:33:54;;;;;;;30.23;13.35;;;;;;;-0.48;100.00;101001.88;5022142;28;20390;-70
2021/01/03 09:36:23;;;;;;;28.70;14.83;;;;;;;-0.50;100.00;101000.97;5007856;28;20037;-72
2021/01/03 09:38:49;;;;;;;24.63;13.27;;;;;;;-0.51;100.00;101005.25;5008756;28;20136;-72
2021/01/03 09:41:49;;;;;;;23.87;12.73;;;;;;;-0.52;100.00;100998.31;5024809;28;20048;-69
2021/01/03 09:44:30;;;;;;;25.87;12.03;;;;;;;-0.51;100.00;101001.78;5001924;28;20624;-73
2021/01/03 09:47:02;;;;;;;24.43;11.90;;;;;;;-0.51;100.00;100994.00;5008253;28;20048;-72
2021/01/03 09:49:45;;;;;;;23.80;11.40;;;;;;;-0.51;100.00;100991.38;5025628;28;20072;-72
2021/01/03 09:52:30;;;;;;;21.83;11.80;;;;;;;-0.52;100.00;100985.31;5017386;28;20030;-74
2021/01/03 09:55:02;;;;;;;19.23;10.87;;;;;;;-0.49;100.00;100992.34;4994971;28;20132;-72
2021/01/03 09:57:48;;;;;;;18.30;9.60;;;;;;;-0.49;100.00;100985.44;5030269;28;20045;-71
2021/01/03 10:00:18;;;;;;;22.23;11.03;;;;;;;-0.45;100.00;100983.78;4994352;28;20072;-73
2021/01/03 10:02:45;;;;;;;21.37;11.03;;;;;;;-0.50;100.00;100990.59;5009788;28;20044;-73
2021/01/03 10:05:32;;;;;;;21.47;11.47;;;;;;;-0.47;100.00;100980.28;5022162;28;20053;-73
2021/01/03 10:08:04;;;;;;;20.63;9.73;;;;;;;-0.43;100.00;100974.31;5002625;28;20091;-72
2021/01/03 10:10:49;;;;;;;21.47;10.87;;;;;;;-0.46;100.00;100980.31;5016660;28;20052;-72
2021/01/03 10:13:16;;;;;;;19.30;9.97;;;;;;;-0.46;100.00;100977.72;4996016;28;20503;-73
2021/01/03 10:15:43;;;;;;;21.17;10.93;;;;;;;-0.41;100.00;100970.09;5009390;28;20499;-75
2021/01/03 10:18:11;;;;;;;19.50;9.90;;;;;;;-0.36;100.00;100973.69;4991259;28;20049;-73
2021/01/03 10:20:43;;;;;;;21.47;10.50;;;;;;;-0.33;100.00;100976.38;5023702;28;20125;-72
2021/01/03 10:23:13;;;;;;;21.07;9.83;;;;;;;-0.40;100.00;100971.84;5008894;28;20088;-72
2021/01/03 10:25:40;;;;;;;19.30;10.70;;;;;;;-0.39;100.00;100965.81;4995823;28;20041;-72
2021/01/03 10:28:11;;;;;;;17.60;10.17;;;;;;;-0.29;100.00;100965.22;5007169;28;20431;-73
2021/01/03 10:30:38;;;;;;;17.60;8.87;;;;;;;-0.36;100.00;100965.88;5005756;28;20108;-75
2021/01/03 10:33:05;;;;;;;16.97;9.10;;;;;;;-0.40;100.00;100962.34;5026263;28;20490;-74
2021/01/03 10:35:31;;;;;;;20.53;10.47;;;;;;;-0.40;100.00;100966.66;5023571;28;20102;-73
2021/01/03 10:37:58;;;;;;;16.70;9.03;;;;;;;-0.38;100.00;100959.78;5011006;28;20484;-75
2021/01/03 10:40:24;;;;;;;17.50;9.50;;;;;;;-0.36;100.00;100958.97;5007225;28;20411;-74
2021/01/03 10:42:51;;;;;;;17.37;8.90;;;;;;;-0.41;100.00;100957.09;4990376;28;20092;-76
2021/01/03 10:45:19;;;;;;;19.00;9.40;;;;;;;-0.41;100.00;100959.72;5017586;28;20085;-73
2021/01/03 10:47:45;;;;;;;19.60;9.30;;;;;;;-0.39;100.00;100948.53;5011932;28;20189;-73
2021/01/03 10:50:13;;;;;;;15.53;9.07;;;;;;;-0.35;100.00;100955.53;5028126;28;20057;-74
2021/01/03 10:52:42;;;;;;;15.97;8.57;;;;;;;-0.35;100.00;100950.34;5008493;28;20030;-75
2021/01/03 10:55:09;;;;;;;20.43;10.40;;;;;;;-0.36;100.00;100948.59;5027125;28;20041;-74
2021/01/03 10:57:37;;;;;;;19.97;9.57;;;;;;;-0.40;100.00;100944.16;4991474;28;20152;-77
2021/01/03 11:00:07;;;;;;;17.40;8.93;;;;;;;-0.36;100.00;100952.91;5013763;28;20068;-75
2021/01/03 11:02:33;;;;;;;14.83;8.07;;;;;;;-0.40;100.00;100954.56;5010163;28;20037;-75
2021/01/03 11:04:59;;;;;;;17.43;9.20;;;;;;;-0.45;100.00;100952.66;4992516;28;20041;-76
2021/01/03 11:07:26;;;;;;;15.43;8.13;;;;;;;-0.39;100.00;100950.25;4994584;28;20049;-75
2021/01/03 11:09:52;;;;;;;14.93;8.20;;;;;;;-0.41;100.00;100944.13;5028192;28;20727;-74
2021/01/03 11:12:19;;;;;;;16.87;8.00;;;;;;;-0.40;100.00;100943.28;5010319;28;20029;-79
2021/01/03 11:14:46;;;;;;;14.80;8.17;;;;;;;-0.41;100.00;100941.53;5023745;28;20045;-78
2021/01/03 11:17:14;;;;;;;13.50;7.00;;;;;;;-0.44;100.00;100939.72;5027141;28;20451;-75
2021/01/03 11:19:41;;;;;;;12.40;6.63;;;;;;;-0.40;100.00;100945.88;4992822;28;20033;-76
2021/01/03 11:22:12;;;;;;;14.63;7.00;;;;;;;-0.39;100.00;100945.03;5027929;28;20037;-78
2021/01/03 11:24:39;;;;;;;11.53;7.10;;;;;;;-0.34;100.00;100943.44;4995446;28;20457;-76